createdAt,value
2018-02-17T00:02:11.305Z,-1.60
2018-02-17T00:04:38.767Z,-1.60
2018-02-17T00:07:07.023Z,-1.50
2018-02-17T00:09:34.891Z,-1.60
2018-02-17T00:12:02.359Z,-1.50
2018-02-17T00:14:29.928Z,-1.60
2018-02-17T00:16:57.383Z,-1.60
2018-02-17T00:19:24.955Z,-1.60
2018-02-17T00:21:53.207Z,-1.70
2018-02-17T00:24:20.663Z,-1.70
2018-02-17T00:26:48.226Z,-1.70
2018-02-17T00:29:15.682Z,-1.70
2018-02-17T00:31:43.151Z,-1.60
2018-02-17T00:34:10.603Z,-1.70
2018-02-17T00:36:38.164Z,-1.60
2018-02-17T00:39:05.668Z,-1.70
2018-02-17T00:41:33.135Z,-1.70
2018-02-17T00:44:00.595Z,-1.60
2018-02-17T00:46:28.097Z,-1.60
2018-02-17T00:48:55.553Z,-1.50
2018-02-17T00:51:23.110Z,-1.50
2018-02-17T00:53:50.680Z,-1.60
2018-02-17T00:56:18.135Z,-1.50
2018-02-17T00:58:45.583Z,-1.60
2018-02-17T01:01:13.035Z,-1.70
2018-02-17T01:03:40.487Z,-1.70
2018-02-17T01:06:07.966Z,-1.80
2018-02-17T01:08:35.423Z,-1.80
2018-02-17T01:11:02.926Z,-1.80
2018-02-17T01:13:30.326Z,-1.70
2018-02-17T01:15:57.796Z,-1.70
2018-02-17T01:18:25.243Z,-1.70
2018-02-17T01:20:52.699Z,-1.70
2018-02-17T01:23:20.175Z,-1.70
2018-02-17T01:25:47.627Z,-1.60
2018-02-17T01:28:15.165Z,-1.60
2018-02-17T01:30:42.607Z,-1.70
2018-02-17T01:33:10.098Z,-1.70
2018-02-17T01:35:37.567Z,-1.70
2018-02-17T01:38:05.015Z,-1.70
2018-02-17T01:40:32.575Z,-1.60
2018-02-17T01:43:00.015Z,-1.60
2018-02-17T01:45:27.479Z,-1.60
2018-02-17T01:47:54.951Z,-1.60
2018-02-17T01:50:32.341Z,-1.70
2018-02-17T01:52:59.791Z,-1.60
2018-02-17T01:55:27.239Z,-1.60
2018-02-17T01:57:54.695Z,-1.60
2018-02-17T02:00:22.166Z,-1.60
2018-02-17T02:02:49.729Z,-1.70
2018-02-17T02:05:17.189Z,-1.80
2018-02-17T02:07:44.646Z,-1.80
2018-02-17T02:10:12.199Z,-1.90
2018-02-17T02:12:40.279Z,-1.90
2018-02-17T02:15:07.731Z,-2.00
2018-02-17T02:17:35.191Z,-2.10
2018-02-17T02:20:02.826Z,-2.10
2018-02-17T02:22:30.345Z,-2.10
2018-02-17T02:24:58.665Z,-2.20
2018-02-17T02:27:26.116Z,-2.20
2018-02-17T02:29:53.599Z,-2.10
2018-02-17T02:32:21.161Z,-2.10
2018-02-17T02:34:48.715Z,-2.00
2018-02-17T02:37:16.275Z,-2.10
2018-02-17T02:39:44.010Z,-2.20
2018-02-17T02:42:11.496Z,-2.20
2018-02-17T02:44:38.959Z,-2.10
2018-02-17T02:47:06.414Z,-2.10
2018-02-17T02:49:33.876Z,-2.00
2018-02-17T02:52:01.426Z,-2.00
2018-02-17T02:54:28.871Z,-1.90
2018-02-17T02:56:56.442Z,-1.80
2018-02-17T02:59:23.891Z,-1.80
2018-02-17T03:01:51.358Z,-1.80
2018-02-17T03:04:18.810Z,-1.70
2018-02-17T03:06:46.366Z,-1.80
2018-02-17T03:09:14.130Z,-1.80
2018-02-17T03:11:41.594Z,-1.90
2018-02-17T03:14:09.042Z,-1.80
2018-02-17T03:16:36.494Z,-1.80
2018-02-17T03:19:03.939Z,-1.80
2018-02-17T03:21:31.418Z,-1.90
2018-02-17T03:23:58.878Z,-1.90
2018-02-17T03:26:26.321Z,-1.90
2018-02-17T03:28:54.318Z,-1.90
2018-02-17T03:31:21.776Z,-1.90
2018-02-17T03:33:49.318Z,-1.90
2018-02-17T03:36:17.186Z,-1.90
2018-02-17T03:38:44.646Z,-1.90
2018-02-17T03:41:12.102Z,-1.90
2018-02-17T03:43:39.554Z,-1.90
2018-02-17T03:46:07.023Z,-1.90
2018-02-17T03:48:34.570Z,-2.00
2018-02-17T03:51:03.165Z,-2.00
2018-02-17T03:53:31.430Z,-2.00
2018-02-17T03:55:58.965Z,-2.10
2018-02-17T03:58:26.410Z,-2.10
2018-02-17T04:00:54.258Z,-2.10
2018-02-17T04:03:21.719Z,-2.20
2018-02-17T04:05:49.181Z,-2.10
2018-02-17T04:08:17.395Z,-2.20
2018-02-17T04:10:44.847Z,-2.20
2018-02-17T04:13:12.410Z,-2.20
2018-02-17T04:15:39.966Z,-2.30
2018-02-17T04:18:07.536Z,-2.30
2018-02-17T04:20:35.096Z,-2.40
2018-02-17T04:23:02.642Z,-2.40
2018-02-17T04:25:30.596Z,-2.30
2018-02-17T04:27:58.051Z,-2.30
2018-02-17T04:30:25.512Z,-2.30
2018-02-17T04:32:52.961Z,-2.40
2018-02-17T04:35:20.415Z,-2.40
2018-02-17T04:37:47.874Z,-2.30
2018-02-17T04:40:21.076Z,-2.30
2018-02-17T04:42:54.350Z,-2.40
2018-02-17T04:45:21.811Z,-2.40
2018-02-17T04:47:54.087Z,-2.50
2018-02-17T04:50:21.530Z,-2.50
2018-02-17T04:52:54.634Z,-2.40
2018-02-17T04:55:27.771Z,-2.50
2018-02-17T04:57:57.942Z,-2.50
2018-02-17T05:00:29.395Z,-2.50
2018-02-17T05:06:13.998Z,-2.50
2018-02-17T05:08:49.758Z,-2.50
2018-02-17T05:11:17.217Z,-2.50
2018-02-17T05:13:44.674Z,-2.40
2018-02-17T05:16:25.007Z,-2.40
2018-02-17T05:21:56.114Z,-2.40
2018-02-17T05:24:24.343Z,-2.40
2018-02-17T05:26:54.243Z,-2.40
2018-02-17T05:29:33.542Z,-2.30
2018-02-17T05:32:15.874Z,-2.30
2018-02-17T05:34:49.890Z,-2.20
2018-02-17T05:37:17.344Z,-2.20
2018-02-17T05:39:54.689Z,-2.20
2018-02-17T05:42:25.483Z,-2.20
2018-02-17T05:44:56.973Z,-2.20
2018-02-17T05:47:26.639Z,-2.30
2018-02-17T05:49:55.815Z,-2.30
2018-02-17T05:52:23.299Z,-2.20
2018-02-17T05:54:50.759Z,-2.20
2018-02-17T05:57:18.519Z,-2.20
2018-02-17T05:59:45.992Z,-2.20
2018-02-17T06:02:13.430Z,-2.20
2018-02-17T06:04:40.889Z,-2.10
2018-02-17T06:07:08.442Z,-2.10
2018-02-17T06:09:35.903Z,-2.10
2018-02-17T06:12:03.370Z,-2.10
2018-02-17T06:14:30.822Z,-2.00
2018-02-17T06:16:58.283Z,-2.00
2018-02-17T06:19:25.748Z,-2.00
2018-02-17T06:21:53.197Z,-2.00
2018-02-17T06:24:22.162Z,-2.00
2018-02-17T06:26:49.610Z,-2.00
2018-02-17T06:29:17.169Z,-1.90
2018-02-17T06:31:44.612Z,-1.90
2018-02-17T06:34:12.182Z,-1.90
2018-02-17T06:36:39.619Z,-1.90
2018-02-17T06:39:07.087Z,-1.90
2018-02-17T06:41:34.573Z,-1.90
2018-02-17T06:44:02.030Z,-1.80
2018-02-17T06:46:29.568Z,-1.80
2018-02-17T06:48:57.018Z,-1.80
2018-02-17T06:51:24.508Z,-1.70
2018-02-17T06:53:52.060Z,-1.70
2018-02-17T06:56:19.518Z,-1.40
2018-02-17T06:58:47.069Z,-1.30
2018-02-17T07:01:14.539Z,-1.40
2018-02-17T07:03:42.003Z,-1.30
2018-02-17T07:06:09.462Z,-1.30
2018-02-17T07:08:37.005Z,-1.40
2018-02-17T07:11:04.465Z,-1.40
2018-02-17T07:13:31.914Z,-1.30
2018-02-17T07:15:59.457Z,-1.20
2018-02-17T07:18:26.902Z,-1.20
2018-02-17T07:20:54.398Z,-1.20
2018-02-17T07:23:21.854Z,-1.10
2018-02-17T07:25:49.409Z,-1.00
2018-02-17T07:28:17.548Z,-1.10
2018-02-17T07:30:45.003Z,-1.00
2018-02-17T07:33:12.456Z,-1.10
2018-02-17T07:35:39.915Z,-1.10
2018-02-17T07:38:07.406Z,-1.00
2018-02-17T07:40:35.047Z,-1.00
2018-02-17T07:43:02.523Z,-0.90
2018-02-17T07:45:29.993Z,-0.90
2018-02-17T07:47:57.846Z,-0.90
2018-02-17T07:50:25.622Z,-0.90
2018-02-17T07:52:53.182Z,-1.00
2018-02-17T07:55:20.726Z,-1.00
2018-02-17T07:57:48.187Z,-0.90
2018-02-17T08:00:15.750Z,-0.80
2018-02-17T08:02:43.306Z,-0.70
2018-02-17T08:05:10.867Z,-0.50
2018-02-17T08:07:38.423Z,-0.40
2018-02-17T08:10:05.878Z,-0.30
2018-02-17T08:12:33.337Z,-0.20
2018-02-17T08:15:00.890Z,-0.20
2018-02-17T08:17:28.347Z,-0.30
2018-02-17T08:19:55.914Z,-0.10
2018-02-17T08:22:23.450Z,0.30
2018-02-17T08:24:50.890Z,0.80
2018-02-17T08:27:19.098Z,1.00
2018-02-17T08:29:46.555Z,1.00
2018-02-17T08:32:14.014Z,0.90
2018-02-17T08:34:41.579Z,1.10
2018-02-17T08:37:09.023Z,0.90
2018-02-17T08:39:36.480Z,0.90
2018-02-17T08:42:03.930Z,0.80
2018-02-17T08:44:31.417Z,0.90
2018-02-17T08:46:58.862Z,0.80
2018-02-17T08:49:26.318Z,0.70
2018-02-17T08:51:53.872Z,0.80
2018-02-17T08:54:21.333Z,0.90
2018-02-17T08:56:48.783Z,1.20
2018-02-17T08:59:16.243Z,1.00
2018-02-17T09:01:43.699Z,1.00
2018-02-17T09:04:11.198Z,1.00
2018-02-17T09:06:38.823Z,1.10
2018-02-17T09:09:06.522Z,0.90
2018-02-17T09:11:34.743Z,0.90
2018-02-17T09:14:02.214Z,0.90
2018-02-17T09:16:29.674Z,0.90
2018-02-17T09:18:57.289Z,0.90
2018-02-17T09:21:24.686Z,1.00
2018-02-17T09:23:52.147Z,1.30
2018-02-17T09:26:19.784Z,1.60
2018-02-17T09:28:47.266Z,1.90
2018-02-17T09:31:14.772Z,2.00
2018-02-17T09:33:42.814Z,1.90
2018-02-17T09:36:10.266Z,2.30
2018-02-17T09:38:37.807Z,2.50
2018-02-17T09:41:05.259Z,2.60
2018-02-17T09:43:33.750Z,2.60
2018-02-17T09:46:01.354Z,2.90
2018-02-17T09:48:28.766Z,2.80
2018-02-17T09:50:56.319Z,2.90
2018-02-17T09:53:24.327Z,2.80
2018-02-17T09:55:52.545Z,3.00
2018-02-17T09:58:19.982Z,3.00
2018-02-17T10:00:47.450Z,3.30
2018-02-17T10:03:14.887Z,3.50
2018-02-17T10:05:43.108Z,3.50
2018-02-17T10:08:10.566Z,3.50
2018-02-17T10:10:38.023Z,3.80
2018-02-17T10:13:05.485Z,3.60
2018-02-17T10:15:33.032Z,3.70
2018-02-17T10:18:00.478Z,3.70
2018-02-17T10:20:27.948Z,3.50
2018-02-17T10:22:55.394Z,3.60
2018-02-17T10:25:22.834Z,3.70
2018-02-17T10:27:50.275Z,3.90
2018-02-17T10:30:17.723Z,4.40
2018-02-17T10:32:45.931Z,4.90
2018-02-17T10:35:13.384Z,4.90
2018-02-17T10:37:40.831Z,5.40
2018-02-17T10:40:08.280Z,5.70
2018-02-17T10:42:35.714Z,5.70
2018-02-17T10:45:03.959Z,5.60
2018-02-17T10:47:31.407Z,5.60
2018-02-17T10:49:58.864Z,5.80
2018-02-17T10:52:26.310Z,5.60
2018-02-17T10:54:53.763Z,5.70
2018-02-17T10:57:21.231Z,5.90
2018-02-17T10:59:48.682Z,5.70
2018-02-17T11:02:16.131Z,5.60
2018-02-17T11:04:43.570Z,5.30
2018-02-17T11:07:11.018Z,5.00
2018-02-17T11:09:38.467Z,5.00
2018-02-17T11:12:06.682Z,4.80
2018-02-17T11:14:34.131Z,4.80
2018-02-17T11:17:01.599Z,4.80
2018-02-17T11:19:29.039Z,5.00
2018-02-17T11:21:56.500Z,5.40
2018-02-17T11:24:23.938Z,6.00
2018-02-17T11:26:51.526Z,6.40
2018-02-17T11:29:18.970Z,6.60
2018-02-17T11:31:46.418Z,6.80
2018-02-17T11:34:13.867Z,7.00
2018-02-17T11:36:41.314Z,7.20
2018-02-17T11:39:08.764Z,6.80
2018-02-17T11:41:36.975Z,6.60
2018-02-17T11:44:04.448Z,6.60
2018-02-17T11:46:31.893Z,6.90
2018-02-17T11:48:59.369Z,7.20
2018-02-17T11:51:26.919Z,7.50
2018-02-17T11:53:54.358Z,7.50
2018-02-17T11:56:21.826Z,7.60
2018-02-17T11:58:49.292Z,7.80
2018-02-17T12:01:16.746Z,8.40
2018-02-17T12:03:44.186Z,8.80
2018-02-17T12:06:11.663Z,9.10
2018-02-17T12:08:39.112Z,9.60
2018-02-17T12:11:06.653Z,9.20
2018-02-17T12:13:34.135Z,9.10
2018-02-17T12:16:01.599Z,9.30
2018-02-17T12:18:29.049Z,9.70
2018-02-17T12:20:56.506Z,9.60
2018-02-17T12:23:24.068Z,9.90
2018-02-17T12:25:51.515Z,9.90
2018-02-17T12:28:18.966Z,9.40
2018-02-17T12:30:46.433Z,9.60
2018-02-17T12:33:14.505Z,9.70
2018-02-17T12:35:41.955Z,9.90
2018-02-17T12:38:09.421Z,10.10
2018-02-17T12:40:36.861Z,10.40
2018-02-17T12:43:04.332Z,10.60
2018-02-17T12:45:31.783Z,11.10
2018-02-17T12:47:59.239Z,11.10
2018-02-17T12:50:26.690Z,10.50
2018-02-17T12:52:54.148Z,10.40
2018-02-17T12:55:21.595Z,9.80
2018-02-17T12:57:49.052Z,10.50
2018-02-17T13:00:16.541Z,10.30
2018-02-17T13:02:44.091Z,10.50
2018-02-17T13:05:11.618Z,10.00
2018-02-17T13:07:39.066Z,10.40
2018-02-17T13:10:06.533Z,10.00
2018-02-17T13:12:33.995Z,10.10
2018-02-17T13:15:01.474Z,10.00
2018-02-17T13:17:28.930Z,10.20
2018-02-17T13:19:56.379Z,9.90
2018-02-17T13:22:24.333Z,9.90
2018-02-17T13:24:52.223Z,10.10
2018-02-17T13:27:19.677Z,10.20
2018-02-17T13:29:47.142Z,9.20
2018-02-17T13:32:14.593Z,8.70
2018-02-17T13:34:42.147Z,8.80
2018-02-17T13:37:09.586Z,8.20
2018-02-17T13:39:37.066Z,8.20
2018-02-17T13:42:04.527Z,8.10
2018-02-17T13:44:32.077Z,7.80
2018-02-17T13:46:59.540Z,7.90
2018-02-17T13:49:27.090Z,8.50
2018-02-17T13:51:54.531Z,8.40
2018-02-17T13:54:21.982Z,8.50
2018-02-17T13:56:49.462Z,8.30
2018-02-17T13:59:16.926Z,7.90
2018-02-17T14:01:44.377Z,7.50
2018-02-17T14:04:11.834Z,7.90
2018-02-17T14:06:39.274Z,8.10
2018-02-17T14:09:06.723Z,7.80
2018-02-17T14:11:34.164Z,7.70
2018-02-17T14:14:01.619Z,7.60
2018-02-17T14:16:29.843Z,7.60
2018-02-17T14:18:57.401Z,7.60
2018-02-17T14:21:24.856Z,7.70
2018-02-17T14:23:52.291Z,7.30
2018-02-17T14:26:19.770Z,7.50
2018-02-17T14:28:47.772Z,7.30
2018-02-17T14:31:15.190Z,7.30
2018-02-17T14:33:42.653Z,7.30
2018-02-17T14:36:10.102Z,7.10
2018-02-17T14:38:37.546Z,6.90
2018-02-17T14:41:05.027Z,6.90
2018-02-17T14:43:32.484Z,6.90
2018-02-17T14:46:00.031Z,6.90
2018-02-17T14:48:27.474Z,7.00
2018-02-17T14:50:54.953Z,7.00
2018-02-17T14:53:22.401Z,6.60
2018-02-17T14:55:49.964Z,6.70
2018-02-17T14:58:17.423Z,6.60
2018-02-17T15:00:45.520Z,6.50
2018-02-17T15:03:14.470Z,6.40
2018-02-17T15:05:41.963Z,6.40
2018-02-17T15:08:09.386Z,6.60
2018-02-17T15:10:36.960Z,6.40
2018-02-17T15:13:04.440Z,6.50
2018-02-17T15:15:31.855Z,6.20
2018-02-17T15:17:59.436Z,6.10
2018-02-17T15:20:26.887Z,6.10
2018-02-17T15:22:54.328Z,5.90
2018-02-17T15:25:21.773Z,6.00
2018-02-17T15:27:49.230Z,5.80
2018-02-17T15:30:16.662Z,5.90
2018-02-17T15:32:44.999Z,5.70
2018-02-17T15:35:13.264Z,5.60
2018-02-17T15:37:41.261Z,5.70
2018-02-17T15:40:10.221Z,5.60
2018-02-17T15:42:37.794Z,5.60
2018-02-17T15:45:05.258Z,5.60
2018-02-17T15:47:32.718Z,5.60
2018-02-17T15:50:00.672Z,5.30
2018-02-17T15:52:28.227Z,5.20
2018-02-17T15:54:55.887Z,5.20
2018-02-17T15:57:23.861Z,5.20
2018-02-17T15:59:51.301Z,5.20
2018-02-17T16:02:18.754Z,5.20
2018-02-17T16:04:46.202Z,5.10
2018-02-17T16:07:14.174Z,5.20
2018-02-17T16:09:41.624Z,5.10
2018-02-17T16:12:09.467Z,5.10
2018-02-17T16:14:37.678Z,5.00
2018-02-17T16:17:05.130Z,5.00
2018-02-17T16:19:32.580Z,4.90
2018-02-17T16:22:00.026Z,4.70
2018-02-17T16:24:27.474Z,4.70
2018-02-17T16:26:54.992Z,4.60
2018-02-17T16:29:22.441Z,4.50
2018-02-17T16:31:49.886Z,4.50
2018-02-17T16:34:17.334Z,4.40
2018-02-17T16:36:44.808Z,4.30
2018-02-17T16:39:12.250Z,4.20
2018-02-17T16:41:39.711Z,4.00
2018-02-17T16:44:07.173Z,3.90
2018-02-17T16:46:34.729Z,3.80
2018-02-17T16:49:02.203Z,3.50
2018-02-17T16:51:29.642Z,3.20
2018-02-17T16:53:57.134Z,3.00
2018-02-17T16:56:25.351Z,2.70
2018-02-17T16:58:52.841Z,2.70
2018-02-17T17:01:20.294Z,2.60
2018-02-17T17:03:47.750Z,2.60
2018-02-17T17:06:15.308Z,2.50
2018-02-17T17:08:42.758Z,2.50
2018-02-17T17:11:10.202Z,2.50
2018-02-17T17:13:37.687Z,2.60
2018-02-17T17:16:05.134Z,2.50
2018-02-17T17:18:33.202Z,2.50
2018-02-17T17:21:00.658Z,2.50
2018-02-17T17:23:28.230Z,2.40
2018-02-17T17:25:55.687Z,2.40
2018-02-17T17:28:23.138Z,2.30
2018-02-17T17:30:50.590Z,2.30
2018-02-17T17:33:18.162Z,2.30
2018-02-17T17:35:45.805Z,2.20
2018-02-17T17:38:13.276Z,2.10
2018-02-17T17:40:40.726Z,2.00
2018-02-17T17:43:08.292Z,1.90
2018-02-17T17:45:35.886Z,1.90
2018-02-17T17:48:04.107Z,1.70
2018-02-17T17:50:31.584Z,1.70
2018-02-17T17:52:59.114Z,1.60
2018-02-17T17:55:26.550Z,2.00
2018-02-17T17:57:54.051Z,1.90
2018-02-17T18:00:21.602Z,1.90
2018-02-17T18:02:49.062Z,1.70
2018-02-17T18:05:16.632Z,1.60
2018-02-17T18:07:44.884Z,1.50
2018-02-17T18:10:12.359Z,1.30
2018-02-17T18:12:39.826Z,1.30
2018-02-17T18:15:07.292Z,1.20
2018-02-17T18:17:34.760Z,1.20
2018-02-17T18:20:02.979Z,1.10
2018-02-17T18:22:30.444Z,1.00
2018-02-17T18:24:57.887Z,1.00
2018-02-17T18:27:25.351Z,1.00
2018-02-17T18:29:52.807Z,1.00
2018-02-17T18:32:20.323Z,1.00
2018-02-17T18:34:47.719Z,0.90
2018-02-17T18:37:15.186Z,0.80
2018-02-17T18:39:42.628Z,0.70
2018-02-17T18:42:10.104Z,0.70
2018-02-17T18:44:37.571Z,0.70
2018-02-17T18:47:05.838Z,0.70
2018-02-17T18:49:33.407Z,0.60
2018-02-17T18:52:00.854Z,0.60
2018-02-17T18:54:28.319Z,0.50
2018-02-17T18:56:55.788Z,0.50
2018-02-17T18:59:23.246Z,0.40
2018-02-17T19:01:50.690Z,0.40
2018-02-17T19:04:18.177Z,0.40
2018-02-17T19:06:45.616Z,0.30
2018-02-17T19:09:13.075Z,0.30
2018-02-17T19:11:40.534Z,0.30
2018-02-17T19:14:07.995Z,0.40
2018-02-17T19:16:35.538Z,0.40
2018-02-17T19:19:03.000Z,0.40
2018-02-17T19:21:30.547Z,0.30
2018-02-17T19:23:58.107Z,0.30
2018-02-17T19:26:25.554Z,0.30
2018-02-17T19:28:53.382Z,0.30
2018-02-17T19:31:20.835Z,0.30
2018-02-17T19:33:49.058Z,0.40
2018-02-17T19:36:16.511Z,0.40
2018-02-17T19:38:43.950Z,0.40
2018-02-17T19:41:11.395Z,0.40
2018-02-17T19:43:38.990Z,0.30
2018-02-17T19:46:06.541Z,0.30
2018-02-17T19:48:34.038Z,0.20
2018-02-17T19:51:01.442Z,0.10
2018-02-17T19:53:28.930Z,0.10
2018-02-17T19:55:56.454Z,0.00
2018-02-17T19:58:23.899Z,0.00
2018-02-17T20:00:51.751Z,-0.10
2018-02-17T20:03:19.988Z,-0.10
2018-02-17T20:05:47.440Z,-0.10
2018-02-17T20:08:14.894Z,-0.20
2018-02-17T20:10:42.452Z,-0.20
2018-02-17T20:13:10.001Z,-0.30
2018-02-17T20:15:37.463Z,-0.30
2018-02-17T20:18:04.919Z,-0.30
2018-02-17T20:20:33.195Z,-0.30
2018-02-17T20:23:00.754Z,-0.30
2018-02-17T20:25:28.206Z,-0.30
2018-02-17T20:27:55.653Z,-0.30
2018-02-17T20:30:23.115Z,-0.40
2018-02-17T20:32:50.584Z,-0.40
2018-02-17T20:35:18.043Z,-0.40
2018-02-17T20:37:45.498Z,-0.50
2018-02-17T20:40:12.952Z,-0.50
2018-02-17T20:42:40.407Z,-0.50
2018-02-17T20:45:07.858Z,-0.60
2018-02-17T20:47:35.522Z,-0.60
2018-02-17T20:50:03.091Z,-0.70
2018-02-17T20:52:30.543Z,-0.80
2018-02-17T20:54:58.103Z,-0.80
2018-02-17T20:57:25.546Z,-0.80
2018-02-17T20:59:53.025Z,-0.90
2018-02-17T21:02:20.490Z,-0.90
2018-02-17T21:04:47.939Z,-0.90
2018-02-17T21:07:15.491Z,-1.00
2018-02-17T21:09:43.047Z,-1.00
2018-02-17T21:12:10.495Z,-1.00
2018-02-17T21:14:38.054Z,-1.00
2018-02-17T21:17:05.508Z,-1.00
2018-02-17T21:19:32.978Z,-0.90
2018-02-17T21:22:00.429Z,-1.00
2018-02-17T21:24:27.892Z,-0.90
2018-02-17T21:26:55.451Z,-1.00
2018-02-17T21:29:23.007Z,-1.00
2018-02-17T21:31:50.458Z,-1.00
2018-02-17T21:34:17.922Z,-1.10
2018-02-17T21:36:45.372Z,-1.00
2018-02-17T21:39:12.943Z,-1.20
2018-02-17T21:41:40.530Z,-1.20
2018-02-17T21:44:07.946Z,-1.10
2018-02-17T21:46:35.403Z,-1.20
2018-02-17T21:49:02.863Z,-1.20
2018-02-17T21:51:30.311Z,-1.20
2018-02-17T21:53:57.768Z,-1.20
2018-02-17T21:56:25.227Z,-1.30
2018-02-17T21:58:52.674Z,-1.30
2018-02-17T22:01:20.125Z,-1.40
2018-02-17T22:03:47.603Z,-1.40
2018-02-17T22:06:15.082Z,-1.40
2018-02-17T22:08:42.540Z,-1.50
2018-02-17T22:11:09.994Z,-1.60
2018-02-17T22:13:37.541Z,-1.70
2018-02-17T22:16:05.091Z,-1.70
2018-02-17T22:18:32.654Z,-1.80
2018-02-17T22:21:00.114Z,-1.80
2018-02-17T22:23:27.748Z,-1.80
2018-02-17T22:25:55.186Z,-1.80
2018-02-17T22:28:22.687Z,-1.80
2018-02-17T22:30:50.386Z,-1.80
2018-02-17T22:33:18.621Z,-1.80
2018-02-17T22:35:46.260Z,-1.80
2018-02-17T22:38:13.690Z,-1.80
2018-02-17T22:40:41.935Z,-1.80
2018-02-17T22:43:09.391Z,-1.90
2018-02-17T22:45:36.846Z,-1.90
2018-02-17T22:48:04.299Z,-1.80
2018-02-17T22:50:31.767Z,-1.80
2018-02-17T22:52:59.212Z,-1.70
2018-02-17T22:55:26.662Z,-1.70
2018-02-17T22:57:54.219Z,-1.70
2018-02-17T23:00:30.451Z,-1.70
2018-02-17T23:02:57.938Z,-1.70
2018-02-17T23:05:25.488Z,-1.80
2018-02-17T23:07:52.950Z,-1.90
2018-02-17T23:10:20.619Z,-1.90
2018-02-17T23:12:48.779Z,-1.90
2018-02-17T23:15:16.950Z,-1.90
2018-02-17T23:17:44.398Z,-1.90
2018-02-17T23:20:11.873Z,-1.80
2018-02-17T23:22:39.319Z,-1.90
2018-02-17T23:25:06.779Z,-1.90
2018-02-17T23:27:34.238Z,-2.00
2018-02-17T23:30:01.807Z,-2.10
2018-02-17T23:32:29.250Z,-2.00
2018-02-17T23:34:56.811Z,-2.10
2018-02-17T23:37:24.267Z,-2.10
2018-02-17T23:39:51.979Z,-2.10
2018-02-17T23:42:20.235Z,-2.20
2018-02-17T23:44:48.271Z,-2.20
2018-02-17T23:47:15.715Z,-2.20
2018-02-17T23:49:43.167Z,-2.30
2018-02-17T23:52:10.653Z,-2.30
2018-02-17T23:54:38.115Z,-2.40
2018-02-17T23:57:05.643Z,-2.40
2018-02-17T23:59:33.124Z,-2.50
